createdAt,value
2023-08-08T00:02:03.861Z,19.06
2023-08-08T00:04:31.828Z,19.03
2023-08-08T00:07:01.186Z,19.01
2023-08-08T00:09:29.241Z,19.03
2023-08-08T00:11:58.454Z,19.02
2023-08-08T00:14:26.673Z,18.95
2023-08-08T00:16:54.652Z,18.96
2023-08-08T00:19:22.693Z,18.95
2023-08-08T00:21:50.654Z,18.98
2023-08-08T00:24:19.999Z,18.94
2023-08-08T00:26:47.974Z,18.89
2023-08-08T00:29:15.942Z,18.85
2023-08-08T00:31:43.972Z,18.82
2023-08-08T00:34:12.030Z,18.83
2023-08-08T00:36:40.023Z,18.80
2023-08-08T00:39:09.032Z,18.80
2023-08-08T00:41:38.356Z,18.77
2023-08-08T00:44:06.325Z,18.76
2023-08-08T00:46:34.598Z,18.73
2023-08-08T00:49:02.472Z,18.69
2023-08-08T00:51:30.508Z,18.65
2023-08-08T00:53:59.253Z,18.62
2023-08-08T00:56:28.105Z,18.56
2023-08-08T00:58:57.491Z,18.53
2023-08-08T01:01:25.516Z,18.50
2023-08-08T01:03:54.290Z,18.51
2023-08-08T01:06:30.857Z,18.48
2023-08-08T01:09:02.651Z,18.48
2023-08-08T01:11:32.811Z,18.51
2023-08-08T01:14:04.139Z,18.48
2023-08-08T01:16:32.824Z,18.47
2023-08-08T01:19:01.400Z,18.53
2023-08-08T01:21:32.028Z,18.47
2023-08-08T01:24:08.616Z,18.44
2023-08-08T01:26:38.102Z,18.39
2023-08-08T01:29:06.192Z,18.40
2023-08-08T01:31:34.208Z,18.39
2023-08-08T01:34:02.282Z,18.38
2023-08-08T01:36:36.642Z,18.41
2023-08-08T01:39:06.933Z,18.40
2023-08-08T01:41:36.023Z,18.38
2023-08-08T01:44:07.402Z,18.41
2023-08-08T01:46:37.727Z,18.36
2023-08-08T01:49:05.755Z,18.33
2023-08-08T01:51:33.800Z,18.32
2023-08-08T01:54:01.803Z,18.34
2023-08-08T01:56:29.769Z,18.31
2023-08-08T01:58:57.764Z,18.25
2023-08-08T02:01:27.227Z,18.24
2023-08-08T02:03:55.497Z,18.21
2023-08-08T02:06:24.184Z,18.22
2023-08-08T02:08:52.159Z,18.23
2023-08-08T02:11:20.318Z,18.17
2023-08-08T02:13:48.297Z,18.15
2023-08-08T02:16:16.317Z,18.12
2023-08-08T02:18:45.704Z,18.16
2023-08-08T02:21:13.770Z,18.17
2023-08-08T02:23:41.822Z,18.19
2023-08-08T02:26:09.808Z,18.15
2023-08-08T02:28:37.944Z,18.12
2023-08-08T02:31:05.957Z,18.12
2023-08-08T02:33:33.931Z,18.14
2023-08-08T02:36:03.319Z,18.09
2023-08-08T02:38:31.336Z,18.11
2023-08-08T02:40:59.342Z,18.10
2023-08-08T02:43:27.359Z,18.08
2023-08-08T02:45:55.407Z,18.07
2023-08-08T02:48:23.424Z,18.05
2023-08-08T02:50:51.427Z,18.05
2023-08-08T02:53:20.784Z,18.02
2023-08-08T02:55:49.315Z,18.06
2023-08-08T02:58:17.311Z,18.01
2023-08-08T03:00:45.285Z,18.02
2023-08-08T03:03:13.269Z,18.01
2023-08-08T03:05:41.324Z,18.01
2023-08-08T03:08:09.331Z,17.96
2023-08-08T03:10:39.636Z,17.97
2023-08-08T03:13:07.618Z,17.97
2023-08-08T03:15:36.573Z,17.94
2023-08-08T03:18:05.310Z,17.94
2023-08-08T03:20:33.358Z,17.95
2023-08-08T03:23:01.331Z,17.96
2023-08-08T03:25:29.281Z,17.97
2023-08-08T03:27:58.676Z,17.95
2023-08-08T03:30:26.721Z,17.90
2023-08-08T03:32:54.826Z,17.97
2023-08-08T03:35:22.978Z,17.91
2023-08-08T03:37:51.132Z,17.94
2023-08-08T03:40:22.115Z,17.94
2023-08-08T03:42:50.117Z,17.90
2023-08-08T03:45:19.762Z,17.90
2023-08-08T03:47:47.810Z,17.93
2023-08-08T03:50:15.929Z,17.89
2023-08-08T03:52:43.937Z,17.92
2023-08-08T03:55:12.108Z,17.93
2023-08-08T03:57:40.085Z,17.96
2023-08-08T04:00:09.760Z,17.97
2023-08-08T04:02:39.723Z,17.94
2023-08-08T04:05:08.478Z,17.97
2023-08-08T04:07:37.178Z,17.90
2023-08-08T04:10:07.693Z,17.89
2023-08-08T04:12:35.737Z,17.90
2023-08-08T04:15:03.940Z,17.92
2023-08-08T04:17:34.800Z,17.92
2023-08-08T04:20:06.718Z,17.89
2023-08-08T04:22:36.955Z,17.83
2023-08-08T04:25:07.359Z,17.86
2023-08-08T04:27:35.333Z,17.82
2023-08-08T04:30:04.162Z,17.78
2023-08-08T04:32:32.233Z,17.79
2023-08-08T04:35:00.240Z,17.83
2023-08-08T04:37:29.675Z,17.83
2023-08-08T04:39:57.901Z,17.85
2023-08-08T04:42:25.964Z,17.84
2023-08-08T04:44:54.011Z,17.81
2023-08-08T04:47:22.085Z,17.78
2023-08-08T04:49:50.100Z,17.82
2023-08-08T04:52:18.145Z,17.74
2023-08-08T04:54:47.559Z,17.70
2023-08-08T04:57:15.539Z,17.71
2023-08-08T04:59:45.180Z,17.72
2023-08-08T05:02:13.182Z,17.73
2023-08-08T05:04:41.203Z,17.64
2023-08-08T05:07:09.180Z,17.62
2023-08-08T05:09:37.195Z,17.60
2023-08-08T05:12:07.341Z,17.54
2023-08-08T05:14:35.430Z,17.55
2023-08-08T05:17:04.296Z,17.53
2023-08-08T05:19:32.352Z,17.54
2023-08-08T05:22:00.736Z,17.53
2023-08-08T05:24:29.099Z,17.52
2023-08-08T05:26:57.210Z,17.45
2023-08-08T05:29:26.728Z,17.53
2023-08-08T05:31:54.716Z,17.58
2023-08-08T05:34:22.693Z,17.52
2023-08-08T05:36:58.899Z,17.47
2023-08-08T05:39:34.094Z,17.47
2023-08-08T05:42:02.457Z,17.46
2023-08-08T05:44:32.116Z,17.43
2023-08-08T05:47:00.114Z,17.40
2023-08-08T05:49:28.151Z,17.36
2023-08-08T05:51:56.262Z,17.34
2023-08-08T05:54:24.301Z,17.33
2023-08-08T05:56:52.313Z,17.36
2023-08-08T05:59:20.545Z,17.35
2023-08-08T06:01:49.997Z,17.30
2023-08-08T06:04:18.085Z,17.28
2023-08-08T06:06:46.171Z,17.25
2023-08-08T06:09:14.150Z,17.32
2023-08-08T06:11:42.108Z,17.34
2023-08-08T06:14:10.203Z,17.37
2023-08-08T06:16:38.284Z,17.37
2023-08-08T06:19:08.054Z,17.36
2023-08-08T06:21:36.054Z,17.34
2023-08-08T06:24:04.026Z,17.38
2023-08-08T06:26:32.122Z,17.38
2023-08-08T06:29:00.261Z,17.42
2023-08-08T06:31:28.360Z,17.38
2023-08-08T06:33:56.365Z,17.38
2023-08-08T06:36:25.715Z,17.45
2023-08-08T06:38:53.733Z,17.44
2023-08-08T06:41:21.699Z,17.42
2023-08-08T06:43:58.637Z,17.44
2023-08-08T06:46:26.861Z,17.44
2023-08-08T06:48:58.235Z,17.40
2023-08-08T06:51:27.729Z,17.38
2023-08-08T06:53:55.777Z,17.39
2023-08-08T06:56:23.935Z,17.40
2023-08-08T06:58:51.967Z,17.37
2023-08-08T07:01:20.293Z,17.40
2023-08-08T07:03:48.965Z,17.45
2023-08-08T07:06:18.748Z,17.50
2023-08-08T07:08:48.134Z,17.61
2023-08-08T07:11:16.290Z,17.60
2023-08-08T07:13:44.289Z,17.74
2023-08-08T07:16:12.318Z,17.85
2023-08-08T07:18:40.384Z,17.94
2023-08-08T07:21:08.444Z,17.98
2023-08-08T07:23:36.516Z,18.01
2023-08-08T07:26:05.901Z,18.00
2023-08-08T07:28:34.120Z,18.00
2023-08-08T07:31:02.135Z,18.00
2023-08-08T07:33:30.165Z,18.01
2023-08-08T07:35:58.194Z,18.01
2023-08-08T07:38:26.426Z,18.00
2023-08-08T07:40:54.391Z,17.98
2023-08-08T07:43:23.738Z,18.01
2023-08-08T07:45:51.753Z,18.03
2023-08-08T07:48:19.824Z,18.07
2023-08-08T07:50:48.005Z,18.11
2023-08-08T07:53:15.948Z,18.10
2023-08-08T07:55:44.088Z,18.17
2023-08-08T07:58:12.256Z,18.26
2023-08-08T08:00:42.161Z,18.35
2023-08-08T08:03:10.363Z,18.34
2023-08-08T08:05:38.777Z,18.39
2023-08-08T08:08:07.032Z,18.40
2023-08-08T08:10:35.078Z,18.40
2023-08-08T08:13:03.388Z,18.34
2023-08-08T08:15:31.934Z,18.28
2023-08-08T08:18:01.537Z,18.26
2023-08-08T08:20:29.559Z,18.32
2023-08-08T08:22:57.617Z,18.42
2023-08-08T08:25:25.695Z,18.54
2023-08-08T08:27:53.686Z,18.59
2023-08-08T08:30:21.790Z,18.71
2023-08-08T08:32:49.942Z,18.82
2023-08-08T08:35:19.586Z,18.92
2023-08-08T08:37:47.605Z,18.92
2023-08-08T08:40:16.453Z,18.84
2023-08-08T08:42:45.444Z,18.79
2023-08-08T08:45:14.894Z,18.73
2023-08-08T08:47:45.654Z,18.74
2023-08-08T08:50:13.670Z,18.88
2023-08-08T08:52:45.353Z,18.95
2023-08-08T08:55:14.842Z,19.07
2023-08-08T08:57:45.644Z,19.03
2023-08-08T09:00:16.067Z,18.99
2023-08-08T09:02:47.691Z,18.89
2023-08-08T09:05:17.513Z,18.85
2023-08-08T09:07:46.933Z,18.92
2023-08-08T09:10:17.806Z,18.93
2023-08-08T09:12:46.309Z,19.01
2023-08-08T09:15:14.949Z,19.07
2023-08-08T09:17:48.853Z,19.08
2023-08-08T09:20:20.123Z,19.13
2023-08-08T09:22:49.594Z,19.08
2023-08-08T09:25:17.790Z,19.07
2023-08-08T09:27:46.655Z,18.92
2023-08-08T09:30:15.222Z,18.83
2023-08-08T09:32:45.543Z,18.78
2023-08-08T09:35:13.818Z,18.67
2023-08-08T09:37:41.892Z,18.59
2023-08-08T09:40:12.846Z,18.49
2023-08-08T09:42:42.461Z,18.45
2023-08-08T09:45:11.988Z,18.36
2023-08-08T09:47:40.466Z,18.30
2023-08-08T09:50:09.754Z,18.28
2023-08-08T09:52:40.208Z,18.15
2023-08-08T09:55:09.062Z,18.02
2023-08-08T09:57:40.781Z,17.97
2023-08-08T10:00:13.223Z,17.86
2023-08-08T10:02:41.660Z,17.77
2023-08-08T10:05:12.710Z,17.68
2023-08-08T10:07:41.591Z,17.61
2023-08-08T10:10:11.440Z,17.59
2023-08-08T10:12:42.497Z,17.58
2023-08-08T10:15:11.940Z,17.60
2023-08-08T10:17:40.377Z,17.54
2023-08-08T10:20:12.616Z,17.44
2023-08-08T10:22:45.927Z,17.30
2023-08-08T10:25:20.931Z,17.31
2023-08-08T10:27:50.445Z,17.25
2023-08-08T10:30:18.515Z,17.24
2023-08-08T10:32:48.521Z,17.32
2023-08-08T10:35:17.689Z,17.40
2023-08-08T10:37:55.504Z,17.56
2023-08-08T10:40:23.656Z,17.81
2023-08-08T10:42:54.448Z,17.79
2023-08-08T10:45:22.637Z,17.86
2023-08-08T10:47:50.690Z,17.92
2023-08-08T10:50:25.067Z,17.96
2023-08-08T10:52:54.175Z,18.06
2023-08-08T10:55:23.339Z,17.98
2023-08-08T10:58:02.378Z,18.02
2023-08-08T11:00:32.892Z,17.82
2023-08-08T11:03:01.667Z,17.72
2023-08-08T11:05:31.935Z,17.66
2023-08-08T11:08:00.402Z,17.50
2023-08-08T11:10:32.182Z,17.34
2023-08-08T11:13:06.592Z,17.20
2023-08-08T11:15:40.008Z,17.13
2023-08-08T11:18:09.518Z,17.08
2023-08-08T11:20:39.883Z,17.04
2023-08-08T11:23:11.505Z,16.85
2023-08-08T11:25:42.904Z,16.77
2023-08-08T11:28:13.940Z,16.72
2023-08-08T11:30:46.103Z,16.67
2023-08-08T11:33:16.886Z,16.63
2023-08-08T11:35:50.171Z,16.60
2023-08-08T11:38:19.971Z,16.58
2023-08-08T11:40:48.102Z,16.59
2023-08-08T11:43:17.595Z,16.59
2023-08-08T11:45:45.841Z,16.66
2023-08-08T11:48:13.699Z,16.75
2023-08-08T11:50:44.421Z,16.81
2023-08-08T11:53:13.108Z,16.90
2023-08-08T11:55:42.416Z,16.96
2023-08-08T11:58:15.892Z,17.00
2023-08-08T12:00:47.433Z,17.18
2023-08-08T12:03:19.327Z,17.26
2023-08-08T12:05:48.416Z,17.29
2023-08-08T12:08:20.342Z,17.35
2023-08-08T12:10:53.986Z,17.41
2023-08-08T12:13:23.666Z,17.36
2023-08-08T12:15:56.424Z,17.22
2023-08-08T12:18:24.707Z,17.28
2023-08-08T12:20:52.830Z,17.26
2023-08-08T12:23:20.846Z,17.31
2023-08-08T12:25:49.046Z,17.36
2023-08-08T12:28:17.006Z,17.45
2023-08-08T12:30:45.015Z,17.51
2023-08-08T12:33:14.587Z,17.49
2023-08-08T12:35:42.915Z,17.44
2023-08-08T12:38:11.552Z,17.42
2023-08-08T12:40:39.674Z,17.43
2023-08-08T12:43:07.673Z,17.38
2023-08-08T12:45:35.951Z,17.28
2023-08-08T12:48:03.863Z,17.29
2023-08-08T12:50:33.276Z,17.29
2023-08-08T12:53:01.429Z,17.30
2023-08-08T12:55:29.424Z,17.20
2023-08-08T12:57:57.427Z,17.16
2023-08-08T13:00:25.880Z,17.09
2023-08-08T13:02:53.926Z,16.95
2023-08-08T13:05:22.239Z,16.92
2023-08-08T13:07:51.601Z,16.84
2023-08-08T13:10:21.208Z,16.80
2023-08-08T13:12:49.360Z,16.79
2023-08-08T13:15:17.510Z,16.81
2023-08-08T13:17:46.559Z,16.83
2023-08-08T13:20:14.800Z,16.76
2023-08-08T13:22:43.880Z,16.77
2023-08-08T13:25:17.165Z,16.85
2023-08-08T13:27:45.754Z,16.82
2023-08-08T13:30:16.730Z,16.81
2023-08-08T13:32:45.024Z,16.75
2023-08-08T13:35:12.835Z,16.63
2023-08-08T13:37:40.968Z,16.67
2023-08-08T13:40:10.178Z,16.50
2023-08-08T13:42:39.639Z,16.49
2023-08-08T13:45:09.357Z,16.45
2023-08-08T13:47:37.456Z,16.44
2023-08-08T13:50:06.088Z,16.46
2023-08-08T13:52:34.825Z,16.51
2023-08-08T13:55:02.986Z,16.53
2023-08-08T13:57:31.200Z,16.54
2023-08-08T14:00:00.760Z,16.52
2023-08-08T14:02:28.935Z,16.56
2023-08-08T14:04:56.797Z,16.71
2023-08-08T14:07:24.819Z,16.94
2023-08-08T14:09:55.949Z,17.03
2023-08-08T14:12:23.913Z,17.13
2023-08-08T14:14:51.962Z,17.19
2023-08-08T14:17:21.338Z,17.32
2023-08-08T14:19:49.360Z,17.32
2023-08-08T14:22:17.320Z,17.23
2023-08-08T14:24:45.398Z,17.09
2023-08-08T14:27:13.929Z,17.08
2023-08-08T14:29:41.971Z,17.11
2023-08-08T14:32:10.180Z,17.04
2023-08-08T14:34:40.603Z,16.98
2023-08-08T14:37:11.253Z,16.85
2023-08-08T14:39:39.488Z,16.64
2023-08-08T14:42:07.849Z,16.45
2023-08-08T14:44:35.711Z,16.22
2023-08-08T14:47:04.100Z,16.05
2023-08-08T14:49:32.331Z,16.06
2023-08-08T14:52:02.128Z,16.00
2023-08-08T14:54:30.653Z,15.96
2023-08-08T14:56:59.664Z,16.07
2023-08-08T14:59:27.981Z,16.06
2023-08-08T15:01:56.237Z,15.94
2023-08-08T15:04:24.280Z,15.92
2023-08-08T15:06:52.613Z,15.86
2023-08-08T15:09:22.470Z,15.82
2023-08-08T15:11:50.487Z,15.77
2023-08-08T15:14:18.537Z,15.73
2023-08-08T15:16:51.279Z,15.77
2023-08-08T15:19:19.515Z,15.76
2023-08-08T15:21:47.811Z,15.80
2023-08-08T15:24:15.568Z,15.79
2023-08-08T15:26:44.985Z,15.78
2023-08-08T15:29:15.649Z,15.78
2023-08-08T15:31:45.037Z,15.83
2023-08-08T15:34:13.155Z,15.83
2023-08-08T15:36:41.116Z,15.93
2023-08-08T15:39:09.190Z,16.04
2023-08-08T15:41:37.735Z,16.11
2023-08-08T15:44:07.667Z,16.12
2023-08-08T15:46:35.824Z,15.98
2023-08-08T15:49:05.628Z,15.89
2023-08-08T15:51:33.579Z,15.75
2023-08-08T15:54:01.581Z,15.66
2023-08-08T15:56:29.644Z,15.65
2023-08-08T15:58:58.208Z,15.48
2023-08-08T16:01:27.825Z,15.34
2023-08-08T16:03:55.837Z,15.30
2023-08-08T16:06:25.247Z,15.28
2023-08-08T16:08:53.975Z,15.24
2023-08-08T16:11:22.021Z,15.25
2023-08-08T16:13:50.040Z,15.22
2023-08-08T16:16:18.217Z,15.24
2023-08-08T16:18:47.796Z,15.29
2023-08-08T16:21:15.852Z,15.38
2023-08-08T16:23:44.029Z,15.47
2023-08-08T16:26:12.052Z,15.56
2023-08-08T16:28:40.225Z,15.56
2023-08-08T16:31:08.827Z,15.60
2023-08-08T16:33:37.138Z,15.60
2023-08-08T16:36:09.103Z,15.53
2023-08-08T16:38:37.773Z,15.52
2023-08-08T16:41:06.116Z,15.49
2023-08-08T16:43:37.060Z,15.47
2023-08-08T16:46:05.690Z,15.43
2023-08-08T16:48:34.122Z,15.37
2023-08-08T16:51:02.398Z,15.34
2023-08-08T16:53:31.830Z,15.28
2023-08-08T16:56:03.797Z,15.34
2023-08-08T16:58:31.946Z,15.30
2023-08-08T17:01:00.271Z,15.33
2023-08-08T17:03:28.694Z,15.30
2023-08-08T17:05:56.477Z,15.28
2023-08-08T17:08:24.484Z,15.25
2023-08-08T17:10:55.625Z,15.17
2023-08-08T17:13:23.806Z,15.16
2023-08-08T17:15:51.924Z,15.07
2023-08-08T17:18:19.945Z,15.02
2023-08-08T17:20:48.002Z,15.07
2023-08-08T17:23:15.996Z,15.09
2023-08-08T17:25:44.020Z,15.04
2023-08-08T17:28:13.413Z,14.99
2023-08-08T17:30:41.526Z,14.99
2023-08-08T17:33:09.520Z,14.95
2023-08-08T17:35:37.575Z,14.94
2023-08-08T17:38:05.749Z,15.00
2023-08-08T17:40:33.767Z,14.98
2023-08-08T17:43:01.746Z,14.91
2023-08-08T17:45:31.256Z,14.81
2023-08-08T17:47:59.378Z,14.70
2023-08-08T17:50:27.424Z,14.69
2023-08-08T17:52:55.437Z,14.68
2023-08-08T17:55:23.637Z,14.65
2023-08-08T17:57:51.744Z,14.60
2023-08-08T18:00:20.322Z,14.53
2023-08-08T18:02:49.815Z,14.49
2023-08-08T18:05:17.853Z,14.47
2023-08-08T18:07:45.852Z,14.44
2023-08-08T18:10:13.880Z,14.38
2023-08-08T18:12:42.846Z,14.35
2023-08-08T18:15:11.759Z,14.29
2023-08-08T18:17:39.776Z,14.27
2023-08-08T18:20:10.948Z,14.24
2023-08-08T18:22:38.951Z,14.25
2023-08-08T18:25:06.625Z,14.18
2023-08-08T18:27:34.639Z,14.15
2023-08-08T18:30:02.878Z,14.10
2023-08-08T18:32:33.603Z,14.05
2023-08-08T18:35:01.730Z,14.09
2023-08-08T18:37:31.375Z,14.07
2023-08-08T18:39:59.443Z,14.06
2023-08-08T18:42:27.556Z,14.10
2023-08-08T18:44:55.593Z,14.11
2023-08-08T18:47:23.643Z,14.08
2023-08-08T18:49:51.680Z,14.04
2023-08-08T18:52:19.702Z,13.99
2023-08-08T18:54:49.328Z,13.97
2023-08-08T18:57:17.458Z,13.94
2023-08-08T18:59:45.509Z,13.91
2023-08-08T19:02:13.545Z,13.91
2023-08-08T19:04:41.641Z,13.93
2023-08-08T19:07:09.729Z,13.91
2023-08-08T19:09:37.816Z,13.78
2023-08-08T19:12:07.801Z,13.77
2023-08-08T19:14:35.837Z,13.67
2023-08-08T19:17:03.892Z,13.69
2023-08-08T19:19:51.910Z,13.65
2023-08-08T19:22:26.612Z,13.60
2023-08-08T19:24:54.665Z,13.60
2023-08-08T19:28:11.607Z,13.56
2023-08-08T19:30:41.118Z,13.52
2023-08-08T19:33:10.000Z,13.53
2023-08-08T19:35:37.995Z,13.56
2023-08-08T19:38:06.068Z,13.52
2023-08-08T19:40:34.287Z,13.41
2023-08-08T19:43:02.375Z,13.38
2023-08-08T19:45:30.431Z,13.32
2023-08-08T19:47:59.967Z,13.22
2023-08-08T19:50:28.084Z,13.20
2023-08-08T19:52:56.276Z,13.21
2023-08-08T19:55:24.334Z,13.20
2023-08-08T19:57:52.368Z,13.14
2023-08-08T20:00:21.318Z,13.17
2023-08-08T20:02:49.395Z,13.15
2023-08-08T20:05:19.029Z,13.13
2023-08-08T20:07:47.629Z,13.14
2023-08-08T20:10:15.825Z,13.11
2023-08-08T20:12:44.244Z,13.13
2023-08-08T20:15:13.416Z,13.09
2023-08-08T20:17:43.515Z,13.09
2023-08-08T20:20:12.619Z,13.07
2023-08-08T20:22:41.978Z,13.07
2023-08-08T20:25:10.506Z,12.98
2023-08-08T20:27:38.497Z,12.95
2023-08-08T20:30:08.207Z,12.91
2023-08-08T20:32:36.734Z,12.87
2023-08-08T20:35:04.949Z,12.84
2023-08-08T20:37:32.931Z,12.77
2023-08-08T20:40:02.321Z,12.72
2023-08-08T20:42:30.294Z,12.69
2023-08-08T20:44:58.327Z,12.70
2023-08-08T20:47:26.377Z,12.64
2023-08-08T20:49:54.448Z,12.60
2023-08-08T20:52:22.426Z,12.52
2023-08-08T20:54:50.685Z,12.54
2023-08-08T20:57:20.080Z,12.48
2023-08-08T20:59:48.100Z,12.43
2023-08-08T21:02:17.259Z,12.43
2023-08-08T21:04:46.221Z,12.42
2023-08-08T21:07:15.903Z,12.44
2023-08-08T21:09:43.940Z,12.44
2023-08-08T21:12:13.048Z,12.43
2023-08-08T21:14:42.668Z,12.34
2023-08-08T21:17:11.245Z,12.35
2023-08-08T21:19:39.521Z,12.28
2023-08-08T21:22:07.952Z,12.20
2023-08-08T21:24:35.723Z,12.21
2023-08-08T21:27:04.591Z,12.16
2023-08-08T21:29:32.832Z,12.15
2023-08-08T21:32:02.266Z,12.10
2023-08-08T21:34:33.276Z,12.13
2023-08-08T21:37:01.562Z,12.07
2023-08-08T21:39:29.616Z,12.06
2023-08-08T21:41:57.636Z,12.05
2023-08-08T21:44:25.788Z,11.98
2023-08-08T21:46:53.904Z,11.95
2023-08-08T21:49:23.464Z,11.93
2023-08-08T21:51:51.678Z,11.91
2023-08-08T21:54:19.655Z,11.86
2023-08-08T21:56:47.685Z,11.87
2023-08-08T21:59:15.825Z,11.89
2023-08-08T22:01:43.837Z,11.86
2023-08-08T22:04:12.007Z,11.87
2023-08-08T22:06:42.578Z,11.86
2023-08-08T22:09:10.958Z,11.92
2023-08-08T22:11:39.031Z,11.89
2023-08-08T22:14:07.081Z,11.84
2023-08-08T22:16:35.190Z,11.80
2023-08-08T22:19:04.467Z,11.85
2023-08-08T22:21:32.832Z,11.90
2023-08-08T22:24:02.340Z,11.86
2023-08-08T22:26:30.396Z,11.84
2023-08-08T22:28:58.616Z,11.83
2023-08-08T22:31:26.584Z,11.83
2023-08-08T22:33:54.563Z,11.83
2023-08-08T22:36:22.905Z,11.76
2023-08-08T22:38:52.119Z,11.86
2023-08-08T22:41:21.582Z,11.80
2023-08-08T22:43:49.597Z,11.78
2023-08-08T22:46:17.683Z,11.73
2023-08-08T22:48:45.748Z,11.75
2023-08-08T22:51:13.742Z,11.78
2023-08-08T22:53:43.787Z,11.77
2023-08-08T22:56:12.284Z,11.67
2023-08-08T22:58:41.435Z,11.68
2023-08-08T23:01:09.449Z,11.69
2023-08-08T23:03:38.823Z,11.72
2023-08-08T23:06:06.961Z,11.69
2023-08-08T23:08:34.949Z,11.62
2023-08-08T23:11:02.915Z,11.60
2023-08-08T23:13:30.986Z,11.65
2023-08-08T23:16:00.337Z,11.63
2023-08-08T23:18:28.393Z,11.66
2023-08-08T23:20:56.381Z,11.65
2023-08-08T23:23:24.445Z,11.64
2023-08-08T23:25:53.212Z,11.59
2023-08-08T23:28:21.836Z,11.53
2023-08-08T23:30:50.056Z,11.52
2023-08-08T23:33:19.806Z,11.50
2023-08-08T23:35:47.878Z,11.59
2023-08-08T23:38:15.883Z,11.61
2023-08-08T23:40:43.910Z,11.64
2023-08-08T23:43:11.990Z,11.56
2023-08-08T23:45:40.162Z,11.56
2023-08-08T23:48:08.473Z,11.62
2023-08-08T23:50:37.902Z,11.65
2023-08-08T23:53:05.980Z,11.68
2023-08-08T23:55:34.169Z,11.69
2023-08-08T23:58:02.244Z,11.69
